Time;durP1;ratioP1;P1;durP2;ratioP2;P2;SDS_P1;SDS_P2;PMS_P1;PMS_P2;Temp;Humidity;BMP_temperature;BMP_pressure;BME280_temperature;BME280_humidity;BME280_pressure;Samples;Min_cycle;Max_cycle;Signal;HPM_P1;HPM_P2
2023/08/23 00:01:54;;;;;;;1.30;1.20;;;;;;;26.67;43.60;97673.97;5021056;28;20656;-26
2023/08/23 00:04:21;;;;;;;1.20;1.20;;;;;;;26.67;42.79;97674.84;5012611;28;20195;-24
2023/08/23 00:06:47;;;;;;;1.45;1.35;;;;;;;26.68;42.97;97684.28;5020633;28;20235;-24
2023/08/23 00:09:15;;;;;;;1.30;1.10;;;;;;;26.68;43.12;97684.28;5011836;28;20304;-23
2023/08/23 00:11:42;;;;;;;1.35;1.25;;;;;;;26.67;43.36;97682.56;5018734;28;20272;-23
2023/08/23 00:14:08;;;;;;;1.30;1.20;;;;;;;26.68;43.33;97678.28;5011978;28;20229;-32
2023/08/23 00:16:35;;;;;;;1.30;1.20;;;;;;;26.68;42.81;97673.97;5016490;28;20660;-24
2023/08/23 00:19:02;;;;;;;1.35;1.25;;;;;;;26.68;42.83;97676.56;5011963;28;20596;-24
2023/08/23 00:21:28;;;;;;;1.52;1.27;;;;;;;26.68;43.08;97680.88;5016959;28;20217;-23
2023/08/23 00:23:55;;;;;;;1.30;1.20;;;;;;;26.68;43.38;97681.72;5021732;28;20248;-26
2023/08/23 00:26:22;;;;;;;1.30;1.20;;;;;;;26.68;43.19;97684.28;5016682;28;20248;-23
2023/08/23 00:28:48;;;;;;;1.40;1.30;;;;;;;26.69;42.67;97682.59;5017845;28;20229;-24
2023/08/23 00:31:15;;;;;;;1.63;1.50;;;;;;;26.69;42.76;97680.00;5009414;28;20226;-30
2023/08/23 00:33:42;;;;;;;1.40;1.20;;;;;;;26.69;43.09;97680.88;5014975;28;20665;-25
2023/08/23 00:36:08;;;;;;;1.65;1.40;;;;;;;26.62;43.38;97668.75;5012584;28;20643;-23
2023/08/23 00:38:35;;;;;;;1.17;1.10;;;;;;;26.69;42.92;97685.16;5022627;28;20214;-23
2023/08/23 00:41:02;;;;;;;1.80;1.30;;;;;;;26.68;42.79;97681.72;5017875;28;20256;-27
2023/08/23 00:43:28;;;;;;;1.00;1.00;;;;;;;26.69;42.94;97680.88;5017854;28;20280;-23
2023/08/23 00:45:55;;;;;;;1.17;1.17;;;;;;;26.70;43.03;97686.88;5017785;28;20205;-23
2023/08/23 00:48:22;;;;;;;1.42;1.33;;;;;;;26.68;43.39;97680.88;5000021;28;20225;-37
2023/08/23 00:50:48;;;;;;;1.10;1.10;;;;;;;26.69;42.89;97674.84;5017130;28;20229;-26
2023/08/23 00:53:15;;;;;;;1.40;1.30;;;;;;;26.70;42.03;97674.00;4998954;28;20201;-25
2023/08/23 00:55:41;;;;;;;1.45;1.20;;;;;;;26.71;41.80;97662.84;5000828;28;20209;-23
2023/08/23 00:58:08;;;;;;;1.23;1.20;;;;;;;26.71;41.91;97665.44;5000182;28;20232;-28
2023/08/23 01:00:35;;;;;;;1.00;1.00;;;;;;;26.69;42.24;97670.56;5013817;28;20256;-30
2023/08/23 01:03:01;;;;;;;1.30;1.20;;;;;;;26.67;42.61;97672.25;5016300;28;20616;-24
2023/08/23 01:05:34;;;;;;;1.20;1.20;;;;;;;26.68;42.91;97676.56;5021427;28;20206;-24
2023/08/23 01:08:07;;;;;;;1.30;1.20;;;;;;;26.69;42.34;97677.44;5000330;28;20609;-23
2023/08/23 01:11:00;;;;;;;1.05;1.05;;;;;;;26.68;42.42;97666.25;5016804;28;20202;-23
2023/08/23 01:13:29;;;;;;;1.20;1.20;;;;;;;26.68;42.63;97662.81;4982758;28;20234;-23
2023/08/23 01:15:57;;;;;;;1.30;1.20;;;;;;;26.67;42.69;97664.53;5009057;28;20256;-23
2023/08/23 01:18:24;;;;;;;1.42;1.33;;;;;;;26.66;43.13;97661.91;5000939;28;20222;-24
2023/08/23 01:20:52;;;;;;;1.20;1.20;;;;;;;26.66;42.35;97667.06;5020077;28;20259;-23
2023/08/23 01:23:19;;;;;;;1.38;1.10;;;;;;;26.66;42.42;97672.25;5018020;28;20222;-23
2023/08/23 01:25:49;;;;;;;1.30;1.20;;;;;;;26.66;42.81;97679.97;5003254;28;20657;-23
2023/08/23 01:28:16;;;;;;;1.20;1.10;;;;;;;26.64;43.32;97673.91;5024609;28;20229;-24
2023/08/23 01:30:43;;;;;;;1.25;1.10;;;;;;;26.64;43.25;97684.22;5018406;28;20669;-23
2023/08/23 01:33:12;;;;;;;1.20;1.10;;;;;;;26.63;42.62;97678.22;5022437;28;20230;-24
2023/08/23 01:35:53;;;;;;;1.27;1.17;;;;;;;26.50;42.57;97660.00;5018445;28;20202;-23
2023/08/23 01:38:19;;;;;;;1.50;1.40;;;;;;;26.64;42.83;97686.81;5000165;28;20264;-23
2023/08/23 01:40:46;;;;;;;1.52;1.42;;;;;;;26.62;43.07;97691.06;4992918;28;20218;-30
2023/08/23 01:43:12;;;;;;;0.98;0.98;;;;;;;26.57;43.09;97691.03;4988580;28;20198;-23
2023/08/23 01:45:39;;;;;;;1.30;1.20;;;;;;;26.63;42.50;97695.41;5006676;28;20201;-23
2023/08/23 01:48:06;;;;;;;1.05;1.05;;;;;;;26.62;42.56;97704.84;5018863;28;20229;-24
2023/08/23 01:50:32;;;;;;;1.10;1.10;;;;;;;26.62;42.72;97702.25;5013300;28;20198;-28
2023/08/23 01:52:59;;;;;;;1.13;1.02;;;;;;;26.61;42.95;97697.94;5013506;28;20238;-29
2023/08/23 01:55:25;;;;;;;1.27;1.17;;;;;;;26.61;43.31;97697.94;5019798;28;20269;-23
2023/08/23 01:57:52;;;;;;;1.15;1.08;;;;;;;26.61;42.76;97697.94;5016511;28;20218;-28
2023/08/23 02:00:19;;;;;;;1.02;1.02;;;;;;;26.62;42.69;97698.81;5013288;28;20530;-23
2023/08/23 02:02:45;;;;;;;1.00;1.00;;;;;;;26.61;42.80;97691.91;5013551;28;20205;-30
2023/08/23 02:05:12;;;;;;;1.30;1.20;;;;;;;26.61;43.14;97700.50;5017077;28;20194;-24
2023/08/23 02:07:38;;;;;;;1.00;1.00;;;;;;;26.60;43.24;97695.34;5018668;28;20222;-24
2023/08/23 02:10:05;;;;;;;1.00;1.00;;;;;;;26.62;42.63;97694.53;5019590;28;20261;-23
2023/08/23 02:12:32;;;;;;;1.30;1.20;;;;;;;26.63;42.35;97683.38;5017543;28;20685;-32
2023/08/23 02:14:58;;;;;;;1.00;1.00;;;;;;;26.62;42.71;97675.59;5021499;28;20210;-23
2023/08/23 02:17:25;;;;;;;1.35;1.25;;;;;;;26.62;43.00;97680.75;5013545;28;20218;-26
2023/08/23 02:19:52;;;;;;;1.30;1.20;;;;;;;26.62;43.08;97685.91;5014012;28;20635;-32
2023/08/23 02:22:18;;;;;;;1.00;1.00;;;;;;;26.61;42.49;97690.19;5016926;28;20613;-25
2023/08/23 02:24:45;;;;;;;1.45;1.20;;;;;;;26.62;42.64;97685.91;5018726;28;20305;-24
2023/08/23 02:27:11;;;;;;;1.20;1.10;;;;;;;26.61;42.89;97689.31;5015166;28;20216;-23
2023/08/23 02:29:38;;;;;;;1.35;1.27;;;;;;;26.61;42.87;97695.34;5017208;28;20234;-23
2023/08/23 02:32:05;;;;;;;1.30;1.20;;;;;;;26.60;43.34;97683.31;5011075;28;20313;-26
2023/08/23 02:34:31;;;;;;;1.38;1.27;;;;;;;26.61;42.78;97681.59;5012717;28;20198;-24
2023/08/23 02:36:58;;;;;;;1.38;1.27;;;;;;;26.60;42.62;97683.31;5013275;28;20233;-24
2023/08/23 02:39:24;;;;;;;1.20;1.20;;;;;;;26.61;42.92;97689.31;5012853;28;20252;-28
2023/08/23 02:41:51;;;;;;;1.15;1.15;;;;;;;26.61;43.23;97681.59;5018820;28;20264;-26
2023/08/23 02:44:17;;;;;;;0.90;0.90;;;;;;;26.60;43.08;97696.22;5022363;28;20230;-28
2023/08/23 02:46:44;;;;;;;1.02;1.02;;;;;;;26.60;42.82;97692.75;5013009;28;20210;-23
2023/08/23 02:49:10;;;;;;;1.30;1.20;;;;;;;26.62;42.60;97685.91;5012657;28;20309;-23
2023/08/23 02:51:37;;;;;;;1.15;1.13;;;;;;;26.61;42.94;97697.06;5011037;28;20685;-28
2023/08/23 02:54:04;;;;;;;1.08;1.08;;;;;;;26.61;43.14;97697.06;5016664;28;20194;-25
2023/08/23 02:56:30;;;;;;;1.40;1.30;;;;;;;26.59;43.13;97697.03;5018604;28;20198;-23
2023/08/23 02:58:57;;;;;;;1.20;1.20;;;;;;;26.60;42.69;97693.63;5012010;28;20233;-24
2023/08/23 03:01:23;;;;;;;1.30;1.20;;;;;;;26.61;42.77;97689.31;5013749;28;20206;-23
2023/08/23 03:03:50;;;;;;;1.10;1.10;;;;;;;26.61;42.83;97690.19;5013173;28;20600;-24
2023/08/23 03:06:16;;;;;;;1.20;1.10;;;;;;;26.60;43.10;97693.63;5012541;28;20695;-23
2023/08/23 03:08:43;;;;;;;1.42;1.17;;;;;;;26.60;43.16;97685.03;5017953;28;20798;-33
2023/08/23 03:11:10;;;;;;;1.40;1.30;;;;;;;26.61;42.25;97681.59;5012932;28;20206;-23
2023/08/23 03:13:36;;;;;;;1.00;1.00;;;;;;;26.61;42.69;97681.59;5012558;28;20645;-32
2023/08/23 03:16:03;;;;;;;1.13;1.08;;;;;;;26.60;42.76;97682.44;5013158;28;20206;-24
2023/08/23 03:18:29;;;;;;;1.00;1.00;;;;;;;26.60;43.08;97683.31;5017342;28;20214;-24
2023/08/23 03:20:56;;;;;;;1.30;1.20;;;;;;;26.56;42.99;97672.97;5023503;28;20645;-23
2023/08/23 03:23:22;;;;;;;1.10;1.10;;;;;;;26.61;42.09;97686.75;5014838;28;20619;-28
2023/08/23 03:25:49;;;;;;;1.23;1.13;;;;;;;26.61;42.57;97686.75;5011351;28;20221;-25
2023/08/23 03:28:16;;;;;;;1.10;1.10;;;;;;;26.62;42.76;97685.91;4993976;28;20222;-23
2023/08/23 03:30:42;;;;;;;1.10;1.10;;;;;;;26.62;43.16;97688.50;5011177;28;20245;-23
2023/08/23 03:33:09;;;;;;;1.17;1.08;;;;;;;26.57;43.16;97683.28;5012621;28;20600;-33
2023/08/23 03:35:35;;;;;;;1.08;1.08;;;;;;;26.61;42.22;97689.31;5011981;28;20202;-25
2023/08/23 03:38:02;;;;;;;1.33;1.23;;;;;;;26.59;42.46;97691.03;5010989;28;20704;-24
2023/08/23 03:40:33;;;;;;;1.20;1.10;;;;;;;26.58;42.95;97681.56;5011786;28;20665;-24
2023/08/23 03:42:59;;;;;;;1.05;1.05;;;;;;;26.61;43.01;97700.50;4997568;28;20198;-27
2023/08/23 03:45:26;;;;;;;1.10;1.10;;;;;;;26.61;43.07;97691.91;5011410;28;20206;-24
2023/08/23 03:47:53;;;;;;;1.30;1.20;;;;;;;26.62;42.30;97702.25;5011761;28;20230;-23
2023/08/23 03:50:19;;;;;;;1.43;1.27;;;;;;;26.62;42.68;97703.97;5003096;28;20216;-23
2023/08/23 03:52:46;;;;;;;1.03;1.00;;;;;;;26.61;42.85;97705.66;5008861;28;20229;-30
2023/08/23 03:55:12;;;;;;;1.33;1.23;;;;;;;26.61;43.09;97709.94;5008553;28;20252;-28
2023/08/23 03:57:39;;;;;;;1.25;1.15;;;;;;;26.61;42.97;97709.94;5007424;28;20237;-23
2023/08/23 04:00:06;;;;;;;1.13;1.13;;;;;;;26.61;42.47;97709.94;5010352;28;20233;-27
2023/08/23 04:02:33;;;;;;;1.10;1.10;;;;;;;26.54;42.69;97701.28;5011802;28;20612;-24
2023/08/23 04:05:02;;;;;;;1.00;1.00;;;;;;;26.61;42.83;97715.09;5011602;28;20284;-23
2023/08/23 04:07:28;;;;;;;1.10;1.10;;;;;;;26.60;43.00;97710.81;5008187;28;20221;-29
2023/08/23 04:09:55;;;;;;;1.00;1.00;;;;;;;26.60;42.80;97714.25;5005734;28;20202;-23
2023/08/23 04:12:21;;;;;;;1.35;1.25;;;;;;;26.60;42.58;97716.84;5005759;28;20226;-23
2023/08/23 04:14:48;;;;;;;1.13;1.10;;;;;;;26.62;42.68;97724.59;5010677;28;20635;-24
2023/08/23 04:17:15;;;;;;;1.30;1.20;;;;;;;26.62;42.89;97716.84;5000428;28;20697;-28
2023/08/23 04:19:41;;;;;;;1.33;1.23;;;;;;;26.61;42.97;97713.41;5005126;28;20206;-24
2023/08/23 04:22:08;;;;;;;1.08;0.90;;;;;;;26.62;42.66;97715.16;5010792;28;20237;-24
2023/08/23 04:24:34;;;;;;;1.30;1.20;;;;;;;26.62;42.49;97716.84;5011186;28;20252;-23
2023/08/23 04:27:03;;;;;;;1.10;1.10;;;;;;;26.62;42.73;97711.69;5003336;28;20253;-23
2023/08/23 04:29:29;;;;;;;1.02;1.02;;;;;;;26.63;43.03;97718.59;5010872;28;20206;-30
2023/08/23 04:31:56;;;;;;;1.13;1.10;;;;;;;26.62;43.11;97704.84;5006445;28;20697;-24
2023/08/23 04:34:22;;;;;;;1.15;1.15;;;;;;;26.62;42.41;97699.69;5007665;28;20285;-24
2023/08/23 04:36:49;;;;;;;1.35;1.25;;;;;;;26.62;42.61;97710.00;5006360;28;20565;-24
2023/08/23 04:39:16;;;;;;;1.30;1.20;;;;;;;26.63;42.83;97704.00;5010556;28;20336;-30
2023/08/23 04:41:42;;;;;;;1.35;1.30;;;;;;;26.64;43.06;97710.03;5011074;28;20746;-25
2023/08/23 04:44:09;;;;;;;1.30;1.20;;;;;;;26.64;43.13;97710.03;5010822;28;20601;-27
2023/08/23 04:46:35;;;;;;;1.20;1.10;;;;;;;26.64;42.47;97713.47;5011055;28;20202;-23
2023/08/23 04:49:02;;;;;;;1.30;1.20;;;;;;;26.61;42.71;97699.63;5010573;28;20234;-27
2023/08/23 04:51:28;;;;;;;1.23;1.13;;;;;;;26.66;42.90;97716.06;5011266;28;20252;-32
2023/08/23 04:53:55;;;;;;;1.30;1.20;;;;;;;26.65;42.90;97711.78;5009990;28;20768;-23
2023/08/23 04:56:22;;;;;;;1.35;1.25;;;;;;;26.65;42.75;97717.78;5011564;28;20241;-29
2023/08/23 04:58:48;;;;;;;1.00;1.00;;;;;;;26.66;42.56;97716.06;4999875;28;20229;-33
2023/08/23 05:01:16;;;;;;;1.35;1.25;;;;;;;26.67;42.65;97715.22;5021005;28;20217;-30
2023/08/23 05:03:42;;;;;;;1.23;1.20;;;;;;;26.67;42.99;97721.25;5012103;28;20198;-23
2023/08/23 05:06:09;;;;;;;1.40;1.30;;;;;;;26.66;43.14;97722.09;5012702;28;20233;-32
2023/08/23 05:08:36;;;;;;;1.50;1.40;;;;;;;26.67;42.73;97721.25;5014021;28;20640;-24
2023/08/23 05:11:02;;;;;;;1.05;1.05;;;;;;;26.68;42.49;97722.97;5013893;28;20285;-24
2023/08/23 05:13:29;;;;;;;1.27;1.17;;;;;;;26.69;42.90;97727.28;5019388;28;20249;-23
2023/08/23 05:15:56;;;;;;;1.13;1.10;;;;;;;26.68;42.95;97717.81;5011878;28;20629;-30
2023/08/23 05:18:22;;;;;;;1.40;1.30;;;;;;;26.69;43.07;97718.69;5010234;28;20304;-24
2023/08/23 05:20:54;;;;;;;1.23;1.17;;;;;;;26.68;42.44;97722.13;5007748;28;20213;-23
2023/08/23 05:23:24;;;;;;;1.98;1.20;;;;;;;26.68;42.71;97717.81;5010836;28;20557;-23
2023/08/23 05:25:51;;;;;;;1.30;1.20;;;;;;;26.71;42.82;97717.84;5013786;28;20202;-27
2023/08/23 05:28:21;;;;;;;1.40;1.30;;;;;;;26.70;43.05;97710.09;5014265;28;20305;-32
2023/08/23 05:30:49;;;;;;;1.33;1.27;;;;;;;26.70;43.01;97710.97;5014413;28;20234;-24
2023/08/23 05:33:16;;;;;;;2.15;1.27;;;;;;;26.71;42.00;97715.25;4996680;28;20221;-24
2023/08/23 05:35:42;;;;;;;1.38;1.27;;;;;;;26.72;41.47;97713.56;5009050;28;20198;-28
2023/08/23 05:38:09;;;;;;;1.27;1.17;;;;;;;26.72;41.71;97709.28;5014267;28;20218;-23
2023/08/23 05:40:37;;;;;;;1.33;1.13;;;;;;;26.72;42.06;97709.28;5014355;28;20198;-23
2023/08/23 05:43:07;;;;;;;1.40;1.30;;;;;;;26.71;42.23;97715.25;5014088;28;20207;-23
2023/08/23 05:45:33;;;;;;;1.60;1.50;;;;;;;26.72;42.79;97721.31;5014428;28;20240;-24
2023/08/23 05:48:00;;;;;;;2.30;1.58;;;;;;;26.73;41.72;97729.06;5013866;28;20740;-24
2023/08/23 05:50:27;;;;;;;3.45;1.45;;;;;;;26.74;42.17;97727.34;5010057;28;20237;-28
2023/08/23 05:52:54;;;;;;;1.55;1.45;;;;;;;26.74;42.40;97722.19;5014189;28;20771;-24
2023/08/23 05:55:20;;;;;;;2.70;1.63;;;;;;;26.73;42.67;97721.31;5013985;28;20209;-24
2023/08/23 05:57:47;;;;;;;1.63;1.52;;;;;;;26.72;42.80;97724.75;5013835;28;20230;-24
2023/08/23 06:00:14;;;;;;;1.40;1.30;;;;;;;26.72;42.45;97721.31;5020082;28;20201;-24
2023/08/23 06:02:41;;;;;;;1.67;1.30;;;;;;;26.72;42.24;97729.03;5014825;28;20199;-23
2023/08/23 06:05:10;;;;;;;1.48;1.38;;;;;;;26.71;42.46;97717.00;5016719;28;20290;-27
2023/08/23 06:07:38;;;;;;;2.58;1.50;;;;;;;26.70;42.62;97726.44;5022109;28;20222;-24
2023/08/23 06:10:05;;;;;;;1.60;1.50;;;;;;;26.69;42.79;97723.84;5015927;28;20230;-25
2023/08/23 06:12:31;;;;;;;1.45;1.35;;;;;;;26.70;42.34;97720.41;5014054;28;20209;-24
2023/08/23 06:14:58;;;;;;;1.65;1.55;;;;;;;26.70;42.23;97722.97;5018388;28;20198;-28
2023/08/23 06:17:25;;;;;;;1.67;1.55;;;;;;;26.70;42.48;97725.56;5013460;28;20218;-26
2023/08/23 06:19:52;;;;;;;1.85;1.35;;;;;;;26.65;42.72;97715.19;5013677;28;20209;-23
2023/08/23 06:22:19;;;;;;;1.70;1.60;;;;;;;26.68;42.80;97725.53;4996468;28;20281;-34
2023/08/23 06:24:46;;;;;;;1.60;1.50;;;;;;;26.68;42.52;97724.69;5013537;28;20305;-24
2023/08/23 06:27:12;;;;;;;1.45;1.35;;;;;;;26.68;42.24;97722.97;5011220;28;20234;-28
2023/08/23 06:29:40;;;;;;;1.45;1.35;;;;;;;26.68;42.49;97724.69;5012910;28;20205;-23
2023/08/23 06:32:07;;;;;;;1.40;1.30;;;;;;;26.68;42.72;97722.13;5013361;28;20209;-23
2023/08/23 06:34:34;;;;;;;1.48;1.38;;;;;;;26.67;42.79;97723.81;5013354;28;20301;-23
2023/08/23 06:37:01;;;;;;;2.25;1.73;;;;;;;26.63;42.30;97716.91;5013456;28;20303;-28
2023/08/23 06:39:28;;;;;;;1.38;1.27;;;;;;;26.67;42.30;97716.09;5012965;28;20205;-24
2023/08/23 06:42:00;;;;;;;1.75;1.65;;;;;;;26.68;42.51;97716.97;5013279;28;20204;-23
2023/08/23 06:44:27;;;;;;;1.58;1.48;;;;;;;26.67;42.81;97721.25;5017043;28;20194;-23
2023/08/23 06:46:53;;;;;;;1.33;1.23;;;;;;;26.68;42.84;97727.28;5013151;28;20202;-30
2023/08/23 06:49:20;;;;;;;1.45;1.35;;;;;;;26.68;42.12;97725.53;5012558;28;20296;-26
2023/08/23 06:51:46;;;;;;;1.40;1.30;;;;;;;26.68;42.16;97729.84;5013335;28;20241;-26
2023/08/23 06:54:13;;;;;;;2.10;1.52;;;;;;;26.68;42.50;97733.28;5012218;28;20228;-27
2023/08/23 06:56:39;;;;;;;1.40;1.30;;;;;;;26.68;42.64;97729.84;5005906;28;20286;-23
2023/08/23 06:59:06;;;;;;;1.40;1.30;;;;;;;26.68;42.88;97732.44;5013007;28;20268;-28
2023/08/23 07:01:32;;;;;;;1.45;1.35;;;;;;;26.69;41.93;97736.72;5009616;28;20206;-24
2023/08/23 07:03:59;;;;;;;1.50;1.40;;;;;;;26.68;42.44;97741.00;5012624;28;20202;-23
2023/08/23 07:06:26;;;;;;;1.40;1.30;;;;;;;26.67;42.53;97739.28;5018254;28;20580;-32
2023/08/23 07:08:53;;;;;;;1.55;1.45;;;;;;;26.67;42.64;97741.88;5011864;28;20715;-30
2023/08/23 07:11:19;;;;;;;1.50;1.40;;;;;;;26.68;43.12;97737.59;5012999;28;20260;-23
2023/08/23 07:13:46;;;;;;;1.52;1.35;;;;;;;26.68;42.21;97742.75;5019051;28;20233;-23
2023/08/23 07:16:13;;;;;;;1.50;1.40;;;;;;;26.69;42.70;97735.03;5017208;28;20206;-26
2023/08/23 07:18:39;;;;;;;1.60;1.50;;;;;;;26.69;42.57;97735.03;5012475;28;20222;-24
2023/08/23 07:21:06;;;;;;;1.75;1.65;;;;;;;26.69;42.89;97731.56;5012704;28;20673;-24
2023/08/23 07:23:33;;;;;;;1.65;1.50;;;;;;;26.69;43.06;97736.72;5019380;28;20190;-38
2023/08/23 07:26:02;;;;;;;1.60;1.50;;;;;;;26.68;42.10;97738.44;5015626;28;20284;-28
2023/08/23 07:28:29;;;;;;;1.60;1.50;;;;;;;26.68;42.30;97748.75;5012102;28;20221;-30
2023/08/23 07:30:58;;;;;;;2.42;1.60;;;;;;;26.69;42.68;97741.88;5012100;28;20695;-24
2023/08/23 07:33:26;;;;;;;1.33;1.23;;;;;;;26.68;42.75;97740.16;5016239;28;20240;-28
2023/08/23 07:35:59;;;;;;;1.48;1.38;;;;;;;26.67;42.84;97747.03;5012157;28;20260;-24
2023/08/23 07:38:26;;;;;;;1.50;1.40;;;;;;;26.68;42.26;97741.00;5011611;28;20292;-23
2023/08/23 07:40:57;;;;;;;1.60;1.50;;;;;;;26.68;42.27;97746.16;5012342;28;20289;-23
2023/08/23 07:43:24;;;;;;;1.60;1.50;;;;;;;26.68;42.64;97747.91;5010423;28;20684;-30
2023/08/23 07:45:54;;;;;;;1.60;1.50;;;;;;;26.68;42.74;97748.75;5011740;28;20297;-24
2023/08/23 07:48:24;;;;;;;1.42;1.33;;;;;;;26.67;42.80;97751.31;5011166;28;20226;-24
2023/08/23 07:50:51;;;;;;;1.55;1.33;;;;;;;26.68;42.03;97753.91;5011717;28;20236;-24
2023/08/23 07:53:18;;;;;;;1.20;1.20;;;;;;;26.68;42.14;97753.06;5011949;28;20317;-29
2023/08/23 07:55:44;;;;;;;1.85;1.70;;;;;;;26.68;42.55;97755.63;5011576;28;20221;-26
2023/08/23 07:58:11;;;;;;;1.63;1.52;;;;;;;26.68;42.67;97756.47;5011884;28;20268;-23
2023/08/23 08:00:38;;;;;;;1.50;1.40;;;;;;;26.67;42.76;97753.88;5004017;28;20202;-23
2023/08/23 08:03:04;;;;;;;1.50;1.40;;;;;;;26.68;42.08;97765.97;5012695;28;20277;-27
2023/08/23 08:05:32;;;;;;;1.50;1.40;;;;;;;26.69;42.19;97762.53;5011449;28;20206;-25
2023/08/23 08:07:59;;;;;;;1.60;1.50;;;;;;;26.68;42.56;97760.78;5011448;28;20746;-24
2023/08/23 08:10:33;;;;;;;1.50;1.40;;;;;;;26.68;42.71;97760.78;5011599;28;20214;-26
2023/08/23 08:13:00;;;;;;;1.55;1.45;;;;;;;26.68;42.89;97768.53;5011472;28;20631;-28
2023/08/23 08:15:26;;;;;;;1.60;1.50;;;;;;;26.67;42.18;97767.66;5011470;28;20214;-24
2023/08/23 08:17:53;;;;;;;1.57;1.47;;;;;;;26.69;42.19;97757.38;5011558;28;20272;-27
2023/08/23 08:20:20;;;;;;;1.55;1.33;;;;;;;26.68;42.66;97758.22;5011347;28;20253;-26
2023/08/23 08:22:47;;;;;;;1.80;1.40;;;;;;;26.67;42.75;97761.63;5011846;28;20206;-24
2023/08/23 08:25:13;;;;;;;1.25;1.20;;;;;;;26.66;42.90;97762.47;5011516;28;20202;-35
2023/08/23 08:27:40;;;;;;;1.70;1.40;;;;;;;26.66;42.02;97765.94;5011803;28;20230;-24
2023/08/23 08:30:07;;;;;;;2.20;1.40;;;;;;;26.68;42.16;97768.53;5011303;28;20692;-24
2023/08/23 08:32:34;;;;;;;1.45;1.35;;;;;;;26.68;42.35;97760.78;5011495;28;20202;-37
2023/08/23 08:35:00;;;;;;;1.27;1.17;;;;;;;26.68;42.63;97760.78;5011406;28;20226;-26
2023/08/23 08:37:27;;;;;;;1.38;1.27;;;;;;;26.66;42.69;97753.03;5011283;28;20582;-24
2023/08/23 08:39:53;;;;;;;1.40;1.30;;;;;;;26.68;42.09;97755.63;5011367;28;20268;-23
2023/08/23 08:42:20;;;;;;;1.70;1.60;;;;;;;25.84;42.17;97613.56;5011404;28;20293;-23
2023/08/23 08:44:47;;;;;;;1.50;1.40;;;;;;;26.68;42.44;97753.06;4994114;28;20550;-27
2023/08/23 08:47:13;;;;;;;2.70;1.60;;;;;;;25.81;42.60;97602.41;4977187;28;20284;-23
2023/08/23 08:49:40;;;;;;;1.40;1.30;;;;;;;26.68;42.73;97753.06;5011468;28;20269;-24
2023/08/23 08:52:07;;;;;;;2.35;1.50;;;;;;;26.68;42.10;97758.22;5011295;28;20260;-26
2023/08/23 08:54:34;;;;;;;1.40;1.30;;;;;;;26.69;42.31;97757.38;5009943;28;20301;-24
2023/08/23 08:57:01;;;;;;;1.45;1.35;;;;;;;26.69;42.49;97755.66;5011328;28;20260;-23
2023/08/23 08:59:27;;;;;;;1.50;1.40;;;;;;;26.68;42.72;97753.91;5014462;28;20201;-24
2023/08/23 09:01:57;;;;;;;1.40;1.30;;;;;;;26.69;42.43;97752.22;5015255;28;20604;-23
2023/08/23 09:04:27;;;;;;;1.50;1.40;;;;;;;26.70;42.09;97759.97;5020339;28;20234;-30
2023/08/23 09:06:55;;;;;;;1.48;1.38;;;;;;;26.71;42.42;97750.53;5017232;28;20202;-24
2023/08/23 09:09:21;;;;;;;1.50;1.40;;;;;;;26.60;42.49;97726.28;4997390;28;20584;-24
2023/08/23 09:11:48;;;;;;;1.40;1.30;;;;;;;26.70;42.66;97749.66;5013799;28;20202;-24
2023/08/23 09:14:20;;;;;;;1.10;1.10;;;;;;;26.71;42.13;97743.63;5018814;28;20779;-23
2023/08/23 09:16:47;;;;;;;1.40;1.30;;;;;;;26.71;42.11;97743.63;5020065;28;20204;-23
2023/08/23 09:19:14;;;;;;;1.55;1.38;;;;;;;26.72;42.30;97744.50;5014880;28;20284;-39
2023/08/23 09:21:44;;;;;;;1.77;1.60;;;;;;;26.71;42.41;97743.63;5017193;28;20202;-24
2023/08/23 09:24:11;;;;;;;1.40;1.30;;;;;;;26.71;42.62;97743.63;5019795;28;20202;-26
2023/08/23 09:26:42;;;;;;;1.40;1.30;;;;;;;26.72;42.19;97741.94;5016535;28;20210;-24
2023/08/23 09:29:09;;;;;;;1.50;1.40;;;;;;;26.73;42.33;97741.06;5002340;28;20268;-24
2023/08/23 09:31:35;;;;;;;1.20;1.20;;;;;;;26.72;42.55;97747.97;5015223;28;20198;-23
2023/08/23 09:34:03;;;;;;;1.30;1.20;;;;;;;26.73;42.70;97747.09;5015343;28;20226;-24
2023/08/23 09:36:31;;;;;;;1.17;1.08;;;;;;;26.74;42.42;97740.25;5013207;28;20252;-23
2023/08/23 09:39:00;;;;;;;1.30;1.20;;;;;;;26.73;42.02;97743.66;5014598;28;20218;-24
2023/08/23 09:41:27;;;;;;;1.75;1.23;;;;;;;26.74;42.41;97745.41;5014487;28;20257;-27
2023/08/23 09:43:54;;;;;;;1.42;1.33;;;;;;;26.74;42.49;97746.25;5022999;28;20193;-24
2023/08/23 09:46:27;;;;;;;1.58;1.48;;;;;;;26.74;42.73;97750.56;5018058;28;20202;-23
2023/08/23 09:48:54;;;;;;;2.30;1.58;;;;;;;26.63;42.17;97723.75;5017529;28;20268;-23
2023/08/23 09:51:24;;;;;;;1.53;1.30;;;;;;;26.74;42.30;97751.41;4985341;28;20229;-23
2023/08/23 09:53:54;;;;;;;2.58;1.40;;;;;;;26.73;42.46;97754.84;5012990;28;20229;-23
2023/08/23 09:56:21;;;;;;;1.30;1.20;;;;;;;26.57;42.81;97723.66;5014348;28;20198;-24
2023/08/23 09:58:47;;;;;;;1.40;1.30;;;;;;;26.74;42.37;97759.13;5015188;28;20222;-28
2023/08/23 10:01:14;;;;;;;1.20;1.10;;;;;;;26.75;42.13;97748.00;4997892;28;20286;-25
2023/08/23 10:03:42;;;;;;;1.38;1.27;;;;;;;26.75;42.01;97753.16;5014020;28;20202;-24
2023/08/23 10:06:08;;;;;;;1.20;1.10;;;;;;;26.75;42.33;97741.97;5013987;28;20199;-31
2023/08/23 10:08:35;;;;;;;1.20;1.10;;;;;;;26.74;42.57;97743.66;5013914;28;20260;-24
2023/08/23 10:11:02;;;;;;;1.33;1.25;;;;;;;26.74;42.48;97742.81;5021050;28;20202;-23
2023/08/23 10:13:29;;;;;;;1.43;1.33;;;;;;;26.75;42.03;97739.38;5020419;28;20233;-34
2023/08/23 10:15:56;;;;;;;1.40;1.30;;;;;;;26.76;41.21;97741.09;4996402;28;20223;-23
2023/08/23 10:18:23;;;;;;;2.00;1.40;;;;;;;26.77;41.41;97748.00;5016118;28;20228;-28
2023/08/23 10:20:51;;;;;;;1.23;1.13;;;;;;;26.76;41.78;97738.53;4980464;28;20530;-24
2023/08/23 10:23:18;;;;;;;1.45;1.35;;;;;;;26.74;41.98;97738.50;5013794;28;20241;-24
2023/08/23 10:25:45;;;;;;;2.15;1.48;;;;;;;26.75;42.21;97739.38;5013689;28;20217;-24
2023/08/23 10:28:13;;;;;;;1.40;1.30;;;;;;;26.75;41.43;97739.38;5013536;28;20720;-23
2023/08/23 10:30:41;;;;;;;1.77;1.55;;;;;;;26.75;41.85;97729.94;5013481;28;20268;-26
2023/08/23 10:33:08;;;;;;;1.67;1.30;;;;;;;26.75;42.05;97731.66;5013666;28;20655;-27
2023/08/23 10:35:36;;;;;;;1.92;1.20;;;;;;;26.73;42.20;97731.63;5013290;28;20237;-23
2023/08/23 10:38:04;;;;;;;1.30;1.20;;;;;;;26.73;42.39;97730.75;5019994;28;20233;-23
2023/08/23 10:40:31;;;;;;;1.40;1.30;;;;;;;26.72;41.56;97721.31;5013284;28;20206;-23
2023/08/23 10:42:58;;;;;;;1.40;1.23;;;;;;;26.73;41.83;97718.75;5019526;28;20202;-32
2023/08/23 10:45:25;;;;;;;1.45;1.30;;;;;;;26.72;42.09;97721.31;4998144;28;20195;-24
2023/08/23 10:47:52;;;;;;;1.52;1.40;;;;;;;26.72;42.50;97716.16;5013510;28;20313;-23
2023/08/23 10:50:19;;;;;;;1.52;1.40;;;;;;;26.71;42.43;97724.72;4995984;28;20226;-24
2023/08/23 10:52:49;;;;;;;1.30;1.20;;;;;;;26.72;41.72;97718.72;5013170;28;20230;-24
2023/08/23 10:55:17;;;;;;;1.30;1.20;;;;;;;26.70;42.05;97717.81;5019593;28;20261;-24
2023/08/23 10:57:44;;;;;;;1.30;1.20;;;;;;;26.71;42.01;97709.25;5016016;28;20700;-24
2023/08/23 11:00:12;;;;;;;1.13;1.13;;;;;;;26.70;42.36;97712.66;5015186;28;20205;-24
2023/08/23 11:02:39;;;;;;;1.20;1.10;;;;;;;26.70;42.67;97712.66;5013042;28;20233;-30
2023/08/23 11:05:06;;;;;;;1.30;1.20;;;;;;;26.69;41.92;97706.66;5013309;28;20221;-26
2023/08/23 11:07:34;;;;;;;1.13;1.10;;;;;;;26.70;42.21;97712.66;5012817;28;20225;-42
2023/08/23 11:10:01;;;;;;;1.33;1.23;;;;;;;26.69;42.38;97709.25;5012606;28;20198;-30
2023/08/23 11:12:27;;;;;;;1.20;1.10;;;;;;;26.65;42.33;97692.00;5016037;28;20293;-24
2023/08/23 11:14:55;;;;;;;1.55;1.35;;;;;;;26.69;42.49;97692.91;4998131;28;20232;-23
2023/08/23 11:17:22;;;;;;;1.30;1.05;;;;;;;26.68;42.09;97698.91;5017461;28;20596;-23
2023/08/23 11:19:49;;;;;;;1.40;1.30;;;;;;;26.70;42.17;97694.63;5000620;28;20202;-23
2023/08/23 11:22:17;;;;;;;2.78;1.33;;;;;;;26.69;42.29;97691.19;5017219;28;20194;-24
2023/08/23 11:24:43;;;;;;;1.48;1.27;;;;;;;26.69;42.32;97682.59;5011793;28;20199;-23
2023/08/23 11:27:12;;;;;;;1.27;1.17;;;;;;;26.69;42.28;97683.47;5011817;28;20289;-26
2023/08/23 11:29:41;;;;;;;1.25;1.15;;;;;;;26.70;41.99;97681.72;5015088;28;20265;-24
2023/08/23 11:32:08;;;;;;;1.23;1.13;;;;;;;26.70;42.23;97676.56;5012442;28;20280;-28
2023/08/23 11:34:34;;;;;;;1.20;1.10;;;;;;;26.69;42.43;97670.56;4994859;28;20737;-26